UKOH

Details ICAO UKOH (KHE)
Name Khersones AB
Region Ukraine
Timezone Europe/Simferopol (UTC+3.0)
Plans Departing 28
Arriving 30
Stats Elevation 39 ft / 12 m (AMSL)
Location 44.579449° 33.396017°
Runways 1
Magnetic Variation 6.670° E
Sunrise 2018-05-24 02:11:39 UTC / 2018-05-24 05:11:39 Local
Sunset 2018-05-24 17:17:43 UTC / 2018-05-24 20:17:43 Local
Advertisement - Login to hide

Runways

ID Width Length Bearing (true) Bearing (mag) Surface Threshold Offset Overrun Length
13 115 ft / 35 m 5,621 ft / 1,713 m 10.70° 4.03° Concrete 0 ft / 0 m 0 ft / 0 m
31 115 ft / 35 m 5,621 ft / 1,713 m 190.70° 184.03° Concrete 0 ft / 0 m 0 ft / 0 m

Map

Weather


0- 5 10 15 20 25 30 35+ Temperature / ° C

Clouds and Precipitation
Forecast for 2018-05-24 00:00 UTC. Updated 3 hours ago

Ground ~20,000 ft ~40,000 ft Winds

METAR

UKOH 240230Z 04003MPS CAVOK 15/13 Q1016 NOSIG

TAF

Not found
Warning: Do not use this data for real-world aviation or navigation. No guarantee of current accuracy is given.